VOBGVOCB

Guest
Details From VOBG - Bangalore
To VOCB - COIMBATORE
Flight Number -
Tags generated
Created
Modified
Stats Distance 122 nm / 226 km
Max Altitude 10,000 ft / 3,048 m
Waypoints 4
Social Downloads 0
Likes 0
Share VATSIM

Download

Looking for another format? Having issues loading an existing format? Contact us
Advertisement - Login to hide

Notes

Basic altitude profile: - Ascent Rate: 2500ft/min - Ascent Speed: 250kts - Cruise Altitude: 35000ft - Cruise Speed: 420kts - Descent Rate: 1500ft/min - Descent Speed: 250kts Options: - Use NATs: yes - Use PACOTS: yes - Use low airways: yes - Use high airways: yes

Route

VOBG BBG W22 CCB VOCB

ID Type Via Altitude Latitude Longitude Leg Dist Tot Dist Heading (true) Name
O VOBG APT - 0 ft / 0 m 12.95016˚ 77.67065˚ - 0 nm - Bangalore
BBG VOR - 200 ft / 61 m 12.94975˚ 77.68100˚ 0 nm 0 nm 92° / 92° BANGALORE VOR-DME
CCB VOR W22 (AWY-LO) 10,000 ft / 3,048 m 11.03378˚ 77.04806˚ 120 nm 121 nm 198° / 198° COIMBATORE VOR-DME
O VOCB APT - 0 ft / 0 m 11.03003˚ 77.04338˚ 0 nm 121 nm 231° / 231° COIMBATORE

Altitude Profile

Advertisement - Login to hide

VOBG

Details ICAO VOBG
Name Bangalore
Region India
Timezone Asia/Kolkata (UTC+5.5)
Stats Elevation 2,912 ft / 888 m (AMSL)
Location 12.950157° 77.670647°
Runways 1
Magnetic Variation 1.217° W

METAR

VOBG 120430Z 18004KT 5000 HZ NSC 23/18 Q1019

Decode

TAF

Not found

Departure Runways

ID Width Length Bearing (true) Bearing (mag) Surface Threshold Offset Overrun Length
09 200 ft / 61 m 10,786 ft / 3,288 m 84.80° 86.02° Asphalt 0 ft / 0 m 950 ft / 290 m
27 200 ft / 61 m 10,786 ft / 3,288 m 264.81° 266.03° Asphalt 0 ft / 0 m 980 ft / 299 m

VOCB

Details ICAO VOCB (CJB)
Name COIMBATORE
Region India
Timezone Asia/Kolkata (UTC+5.5)
Stats Elevation 1,324 ft / 404 m (AMSL)
Location 11.030031° 77.043381°
Runways 1
Magnetic Variation 1.511° W

METAR

VOCB 120430Z 36003KT 4000 BR SCT015 BKN080 25/21 Q1018 NOSIG

Decode

TAF

Not found

Destination Runways

ID Width Length Bearing (true) Bearing (mag) Surface Threshold Offset Overrun Length
05 150 ft / 46 m 8,499 ft / 2,590 m 45.67° 47.18° Asphalt 0 ft / 0 m 185 ft / 56 m
23 150 ft / 46 m 8,499 ft / 2,590 m 225.68° 227.19° Asphalt 0 ft / 0 m 185 ft / 56 m

Approach Navaids

Runway Type Ident Frequency Range Bearing (true) Bearing (mag) Slope Elevation
23 Localiser ICMB 109.10 MHz 18 nm / 33 km 227.35° 228.87° - 1,324 ft / 404 m (AMSL)
23 Glidescope ICMB 109.10 MHz 10 nm / 19 km 225.68° 227.19° 3.00° 1,324 ft / 404 m (AMSL)
23 DME ICMB 109.10 MHz 18 nm / 33 km - - - 1,324 ft / 404 m (AMSL)

Popular Alternatives